ADDS TAF Data INFO
IDs: Format: Raw Decoded Include METARs

Data at: 0328 UTC 16 Dec 2017

KPIE 152327Z 1600/1624 VRB04KT P6SM FEW040 SCT250
  FM160800 03004KT P6SM SCT020 SCT250
  FM161500 03006KT P6SM SCT040 BKN250